Historyczne dane pomiarowe

Dodano dane terminowe – wersja testowa.

Dane z okresu 1951-2019

Wersja bazy: 1.34 [2019-03-16, lista zmian], aktualizacja planowana na 2019-04-15

Dane meteo z obszaru Polski uzyskane na podstawie danych udostępnionych przez Instytut Meteorologii i Gospodarki Wodnej – Państwowy Instytut Badawczy.

 

Wybierz Datę:    

       

TemperaturaWilgotnośćWiatrCiśnienieOpadyŚniegCzas trwania zjawisk
 Stacja t tx tn tng RH VA  wxwx mslp ppp RRR   cm mm wxwxwxwxwxwxwx
1983-08-14 13.9 17.4 9.2 8.2 76.3- 3.0 5.3---- 0.0------------
1983-08-13 15.4 22.6 11.5 10.1 85.3- 8.0 6.0---- 5.0------------
1983-08-12 20.8 26.2 15.8 14.3 66.8- 1.3 2.3---- 0.0------------
1983-08-11 20.6 25.6 15.2 13.1 79.3- 0.0 2.0---- 0.0------------
1983-08-10 19.1 24.8 13.7 12.9 79.8- 2.7 3.0---- 0.3------------
1983-08-09 18.8 25.8 13.6 12.1 86.5- 5.3 1.7---- 25.8------------
1983-08-08 18.9 22.2 14.5 14.1 85.8- 4.0 8.0---- 12.6------------
1983-08-07 17.3 21.3 10.2 9.8 88.0- 6.0 4.0---- 7.4------------
1983-08-06 15.7 20.2 10.2 9.6 83.0- 7.3 1.0---- 0.0------------
1983-08-05 13.6 17.2 9.4 9.1 82.3- 8.0 1.7---- 0.0------------
1983-08-04 13.0 18.0 10.7 10.6 90.8- 8.0 3.3---- 4.7------------
1983-08-03 19.2 26.3 15.6 14.9 86.3- 5.3 1.7---- 45.2------------
1983-08-02 20.4 29.8 13.1 11.5 82.5- 2.7 3.7---- 1.4------------
1983-08-01 19.5 27.2 9.5 5.9 65.8- 0.0 4.0---- 0.0------------
1983-07-31 18.0 23.1 10.3 10.0 64.3- 0.0 1.0---- 0.0------------
1983-07-30 19.3 23.8 15.2 15.1 71.5- 6.7 6.3---- 0.8------------
1983-07-29 20.9 25.4 13.1 10.3 60.8- 0.7 4.3---- 0.0------------
1983-07-28 23.9 28.8 17.4 16.1 63.0- 2.7 4.0---- 0.0------------
1983-07-27 23.6 30.7 14.4 12.6 70.3- 0.0 0.0---- 0.0------------
1983-07-26 21.6 27.7 14.6 13.2 59.8- 3.3 3.0---- 0.0------------
1983-07-25 16.2 20.2 9.6 9.0 70.8- 8.0 3.7---- 0.0------------
1983-07-24 16.2 19.5 14.3 13.9 81.8- 8.0 0.3---- 0.0------------
1983-07-23 17.0 20.0 12.9 12.0 72.8- 8.0 3.0---- 0.0------------
1983-07-22 12.9 15.5 10.3 9.6 80.0- 5.3 3.3---- 0.3------------
1983-07-21 14.4 17.3 12.1 10.1 64.3- 7.3 4.7---- 0.0------------
1983-07-20 16.9 26.4 13.9 13.2 75.3- 8.0 2.3---- 2.0------------
1983-07-19 23.2 29.5 14.9 12.7 64.0- 0.7 3.0---- 10.2------------
1983-07-18 21.0 27.7 12.2 10.4 67.0- 0.0 0.3---- 0.0------------
1983-07-17 21.5 25.7 14.5 12.9 69.0- 2.0 3.0---- 0.0------------
1983-07-16 21.0 27.7 13.1 11.6 70.8- 2.0 3.7---- 0.0------------
1983-07-15 19.8 24.2 13.1 12.6 69.5- 0.7 1.0---- 0.0------------
1983-07-14 17.8 21.2 15.3 15.1 89.5- 7.3 6.0---- 14.5------------
1983-07-13 18.2 23.5 14.5 12.3 85.3- 7.3 5.0---- 41.8------------
1983-07-12 18.4 22.8 14.8 12.7 89.3- 7.3 4.0---- 9.0------------
1983-07-11 19.0 25.3 15.8 13.7 84.5- 5.7 2.3---- 14.8------------
1983-07-10 22.6 29.2 14.4 12.3 59.0- 0.0 1.7---- 0.0------------
1983-07-09 21.6 27.5 11.8 11.1 62.0- 0.7 1.7---- 0.0------------
1983-07-08 20.7 27.7 9.9 7.8 49.5- 0.0 0.3---- 0.0------------
1983-07-07 21.5 28.2 11.1 10.3 61.8- 0.0 1.0---- 0.0------------
1983-07-06 21.8 27.6 11.3 9.6 58.3- 0.0 0.3---- 0.0------------
1983-07-05 19.5 27.3 10.0 9.0 69.5- 2.7 2.0---- 0.0------------
1983-07-04 19.8 26.2 9.7 8.1 68.5- 0.0 1.0---- 0.0------------
1983-07-03 19.3 24.4 11.4 10.0 65.8- 0.0 1.3---- 0.0------------
1983-07-02 19.2 25.5 11.8 10.0 78.5- 2.7 1.3---- 0.0------------
1983-07-01 20.5 26.7 10.7 8.0 70.5- 0.0 1.7---- 0.0------------
1983-06-30 15.9 23.0 4.3 3.7 74.0- 0.0 2.7---- 0.0------------
1983-06-29 14.8 19.8 8.1 5.4 66.8- 0.0 3.3---- 0.0------------
1983-06-28 16.5 20.8 13.9 12.4 89.3- 8.0 2.0---- 0.9------------
1983-06-27 20.1 28.2 12.1 10.1 78.8- 5.3 3.0---- 4.2------------
1983-06-26 20.3 24.2 15.8 14.7 81.5- 4.7 1.3---- 0.0------------
1983-06-25 20.4 27.5 9.8 8.6 61.8- 0.0 1.3---- 0.0------------
1983-06-24 17.1 26.0 5.2 2.4 66.5- 0.0 0.0---- 0.0------------
1983-06-23 14.4 20.2 5.6 2.9 66.3- 0.0 2.7---- 0.0------------
1983-06-22 15.4 21.7 10.6 8.7 60.3- 0.0 3.3---- 0.0------------
1983-06-21 20.0 25.3 12.3 11.3 65.3- 0.7 1.0---- 0.0------------
1983-06-20 18.7 23.5 15.4 14.4 84.3- 6.0 1.0---- 0.0------------
1983-06-19 16.5 21.8 12.1 11.8 90.3- 7.3 6.7---- 0.0------------
1983-06-18 12.9 15.5 10.1 9.8 93.5- 8.0 4.7---- 23.3------------
1983-06-17 13.3 16.5 8.7 8.1 78.8- 8.0 5.7---- 5.5------------
1983-06-16 12.8 15.3 10.5 10.1 88.3- 8.0 4.3---- 0.0------------
331.1 ms

 

Źródłem pochodzenia danych jest Instytut Meteorologii i Gospodarki Wodnej – Państwowy Instytut Badawczy. Dane Instytutu Meteorologii i Gospodarki Wodnej – Państwowego Instytutu Badawczego zostały przetworzone.

Dane źródłowe można odnaleźć na stronie https://dane.imgw.pl